sensor_id;sensor_type;location;lat;lon;timestamp;temperature;humidity
8338;DHT22;4206;48.634;9.516;2022-10-16T00:01:12;15.00;99.90
8338;DHT22;4206;48.634;9.516;2022-10-16T00:03:40;14.90;99.90
8338;DHT22;4206;48.634;9.516;2022-10-16T00:06:06;14.90;99.90
8338;DHT22;4206;48.634;9.516;2022-10-16T00:08:33;14.90;99.90
8338;DHT22;4206;48.634;9.516;2022-10-16T00:11:00;14.90;99.90
8338;DHT22;4206;48.634;9.516;2022-10-16T00:13:26;14.80;99.90
8338;DHT22;4206;48.634;9.516;2022-10-16T00:15:55;14.90;99.90
8338;DHT22;4206;48.634;9.516;2022-10-16T00:18:21;14.80;99.90
8338;DHT22;4206;48.634;9.516;2022-10-16T00:20:47;14.70;99.90
8338;DHT22;4206;48.634;9.516;2022-10-16T00:23:12;14.80;99.90
8338;DHT22;4206;48.634;9.516;2022-10-16T00:25:38;14.80;99.90
8338;DHT22;4206;48.634;9.516;2022-10-16T00:28:04;14.80;99.90
8338;DHT22;4206;48.634;9.516;2022-10-16T00:30:29;14.80;99.90
8338;DHT22;4206;48.634;9.516;2022-10-16T00:32:55;14.80;99.90
8338;DHT22;4206;48.634;9.516;2022-10-16T00:35:21;14.80;99.90
8338;DHT22;4206;48.634;9.516;2022-10-16T00:37:47;14.70;99.90
8338;DHT22;4206;48.634;9.516;2022-10-16T00:40:13;14.70;99.90
8338;DHT22;4206;48.634;9.516;2022-10-16T00:42:38;14.60;99.90
8338;DHT22;4206;48.634;9.516;2022-10-16T00:45:04;14.50;99.90
8338;DHT22;4206;48.634;9.516;2022-10-16T00:47:31;14.50;99.90
8338;DHT22;4206;48.634;9.516;2022-10-16T00:52:31;14.40;99.90
8338;DHT22;4206;48.634;9.516;2022-10-16T00:54:57;14.40;99.90
8338;DHT22;4206;48.634;9.516;2022-10-16T00:57:24;14.40;99.90
8338;DHT22;4206;48.634;9.516;2022-10-16T00:59:50;14.40;99.90
8338;DHT22;4206;48.634;9.516;2022-10-16T01:02:16;14.30;99.90
8338;DHT22;4206;48.634;9.516;2022-10-16T01:04:49;14.30;99.90
8338;DHT22;4206;48.634;9.516;2022-10-16T01:07:36;14.20;99.90
8338;DHT22;4206;48.634;9.516;2022-10-16T01:15:37;14.20;99.90
8338;DHT22;4206;48.634;9.516;2022-10-16T01:20:57;14.20;99.90
8338;DHT22;4206;48.634;9.516;2022-10-16T01:28:54;14.10;99.90
8338;DHT22;4206;48.634;9.516;2022-10-16T01:31:24;14.10;99.90
8338;DHT22;4206;48.634;9.516;2022-10-16T01:33:57;14.10;99.90
8338;DHT22;4206;48.634;9.516;2022-10-16T01:36:31;14.10;99.90
8338;DHT22;4206;48.634;9.516;2022-10-16T01:39:01;14.10;99.90
8338;DHT22;4206;48.634;9.516;2022-10-16T01:41:34;14.10;99.90
8338;DHT22;4206;48.634;9.516;2022-10-16T01:46:31;14.00;99.90
8338;DHT22;4206;48.634;9.516;2022-10-16T01:48:57;14.10;99.90
8338;DHT22;4206;48.634;9.516;2022-10-16T01:51:25;14.10;99.90
8338;DHT22;4206;48.634;9.516;2022-10-16T01:53:54;14.10;99.90
8338;DHT22;4206;48.634;9.516;2022-10-16T01:56:21;14.20;99.90
8338;DHT22;4206;48.634;9.516;2022-10-16T01:58:55;14.10;99.90
8338;DHT22;4206;48.634;9.516;2022-10-16T02:01:23;14.10;99.90
8338;DHT22;4206;48.634;9.516;2022-10-16T02:03:54;14.10;99.90
8338;DHT22;4206;48.634;9.516;2022-10-16T02:06:20;14.10;99.90
8338;DHT22;4206;48.634;9.516;2022-10-16T02:08:46;14.20;99.90
8338;DHT22;4206;48.634;9.516;2022-10-16T02:11:12;14.10;99.90
8338;DHT22;4206;48.634;9.516;2022-10-16T02:13:44;14.20;99.90
8338;DHT22;4206;48.634;9.516;2022-10-16T02:16:11;14.20;99.90
8338;DHT22;4206;48.634;9.516;2022-10-16T02:18:38;14.20;99.90
8338;DHT22;4206;48.634;9.516;2022-10-16T02:21:19;14.30;99.90
8338;DHT22;4206;48.634;9.516;2022-10-16T02:24:07;14.30;99.90
8338;DHT22;4206;48.634;9.516;2022-10-16T02:26:57;14.40;99.90
8338;DHT22;4206;48.634;9.516;2022-10-16T02:29:26;14.50;99.90
8338;DHT22;4206;48.634;9.516;2022-10-16T02:31:58;14.50;99.90
8338;DHT22;4206;48.634;9.516;2022-10-16T02:34:26;14.60;99.90
8338;DHT22;4206;48.634;9.516;2022-10-16T02:36:53;14.60;99.90
8338;DHT22;4206;48.634;9.516;2022-10-16T02:39:20;14.70;99.90
8338;DHT22;4206;48.634;9.516;2022-10-16T02:41:46;14.70;99.90
8338;DHT22;4206;48.634;9.516;2022-10-16T02:44:11;14.70;99.90
8338;DHT22;4206;48.634;9.516;2022-10-16T02:46:37;14.70;99.90
8338;DHT22;4206;48.634;9.516;2022-10-16T02:49:03;14.70;99.90
8338;DHT22;4206;48.634;9.516;2022-10-16T02:51:28;14.70;99.90
8338;DHT22;4206;48.634;9.516;2022-10-16T02:53:54;14.70;99.90
8338;DHT22;4206;48.634;9.516;2022-10-16T02:56:20;14.70;99.90
8338;DHT22;4206;48.634;9.516;2022-10-16T02:58:46;14.80;99.90
8338;DHT22;4206;48.634;9.516;2022-10-16T03:01:12;14.80;99.90
8338;DHT22;4206;48.634;9.516;2022-10-16T03:03:39;14.80;99.90
8338;DHT22;4206;48.634;9.516;2022-10-16T03:06:05;14.80;99.90
8338;DHT22;4206;48.634;9.516;2022-10-16T03:08:31;14.90;99.90
8338;DHT22;4206;48.634;9.516;2022-10-16T03:10:57;15.00;99.90
8338;DHT22;4206;48.634;9.516;2022-10-16T03:13:22;15.00;99.90
8338;DHT22;4206;48.634;9.516;2022-10-16T03:15:48;15.00;99.90
8338;DHT22;4206;48.634;9.516;2022-10-16T03:18:14;15.10;99.90
8338;DHT22;4206;48.634;9.516;2022-10-16T03:20:40;15.20;99.90
8338;DHT22;4206;48.634;9.516;2022-10-16T03:23:06;15.20;99.90
8338;DHT22;4206;48.634;9.516;2022-10-16T03:25:33;15.20;99.90
8338;DHT22;4206;48.634;9.516;2022-10-16T03:27:59;15.20;99.90
8338;DHT22;4206;48.634;9.516;2022-10-16T03:30:27;15.30;99.90
8338;DHT22;4206;48.634;9.516;2022-10-16T03:32:53;15.40;99.90
8338;DHT22;4206;48.634;9.516;2022-10-16T03:35:21;15.50;99.90
8338;DHT22;4206;48.634;9.516;2022-10-16T03:37:46;15.60;99.90
8338;DHT22;4206;48.634;9.516;2022-10-16T03:40:12;15.60;99.90
8338;DHT22;4206;48.634;9.516;2022-10-16T03:42:38;15.50;99.90
8338;DHT22;4206;48.634;9.516;2022-10-16T03:45:04;15.60;99.90
8338;DHT22;4206;48.634;9.516;2022-10-16T03:47:30;15.60;99.90
8338;DHT22;4206;48.634;9.516;2022-10-16T03:49:58;15.60;99.90
8338;DHT22;4206;48.634;9.516;2022-10-16T03:52:24;15.60;99.90
8338;DHT22;4206;48.634;9.516;2022-10-16T03:54:49;15.50;99.90
8338;DHT22;4206;48.634;9.516;2022-10-16T03:57:15;15.40;99.90
8338;DHT22;4206;48.634;9.516;2022-10-16T03:59:41;15.30;99.90
8338;DHT22;4206;48.634;9.516;2022-10-16T04:02:06;15.20;99.90
8338;DHT22;4206;48.634;9.516;2022-10-16T04:04:32;15.10;99.90
8338;DHT22;4206;48.634;9.516;2022-10-16T04:06:58;15.10;99.90
8338;DHT22;4206;48.634;9.516;2022-10-16T04:09:23;15.00;99.90
8338;DHT22;4206;48.634;9.516;2022-10-16T04:11:49;14.90;99.90
8338;DHT22;4206;48.634;9.516;2022-10-16T04:14:14;14.90;99.90
8338;DHT22;4206;48.634;9.516;2022-10-16T04:16:40;14.90;99.90
8338;DHT22;4206;48.634;9.516;2022-10-16T04:19:06;14.80;99.90
8338;DHT22;4206;48.634;9.516;2022-10-16T04:21:33;14.90;99.90
8338;DHT22;4206;48.634;9.516;2022-10-16T04:23:59;14.80;99.90
8338;DHT22;4206;48.634;9.516;2022-10-16T04:26:25;14.80;99.90
8338;DHT22;4206;48.634;9.516;2022-10-16T04:28:50;14.80;99.90
8338;DHT22;4206;48.634;9.516;2022-10-16T04:31:16;14.70;99.90
8338;DHT22;4206;48.634;9.516;2022-10-16T04:33:43;14.70;99.90
8338;DHT22;4206;48.634;9.516;2022-10-16T04:36:09;14.70;99.90
8338;DHT22;4206;48.634;9.516;2022-10-16T04:38:34;14.70;99.90
8338;DHT22;4206;48.634;9.516;2022-10-16T04:41:00;14.70;99.90
8338;DHT22;4206;48.634;9.516;2022-10-16T04:43:26;14.70;99.90
8338;DHT22;4206;48.634;9.516;2022-10-16T04:45:52;14.70;99.90
8338;DHT22;4206;48.634;9.516;2022-10-16T04:48:18;14.70;99.90
8338;DHT22;4206;48.634;9.516;2022-10-16T04:50:44;14.60;99.90
8338;DHT22;4206;48.634;9.516;2022-10-16T04:53:09;14.60;99.90
8338;DHT22;4206;48.634;9.516;2022-10-16T04:55:35;14.50;99.90
8338;DHT22;4206;48.634;9.516;2022-10-16T04:58:01;14.60;99.90
8338;DHT22;4206;48.634;9.516;2022-10-16T05:00:27;14.50;99.90
8338;DHT22;4206;48.634;9.516;2022-10-16T05:02:53;14.50;99.90
8338;DHT22;4206;48.634;9.516;2022-10-16T05:05:18;14.50;99.90
8338;DHT22;4206;48.634;9.516;2022-10-16T05:07:46;14.50;99.90
8338;DHT22;4206;48.634;9.516;2022-10-16T05:10:12;14.40;99.90
8338;DHT22;4206;48.634;9.516;2022-10-16T05:12:37;14.40;99.90
8338;DHT22;4206;48.634;9.516;2022-10-16T05:15:04;14.40;99.90
8338;DHT22;4206;48.634;9.516;2022-10-16T05:17:29;14.50;99.90
8338;DHT22;4206;48.634;9.516;2022-10-16T05:19:55;14.40;99.90
8338;DHT22;4206;48.634;9.516;2022-10-16T05:22:21;14.40;99.90
8338;DHT22;4206;48.634;9.516;2022-10-16T05:24:47;14.40;99.90
8338;DHT22;4206;48.634;9.516;2022-10-16T05:27:12;14.40;99.90
8338;DHT22;4206;48.634;9.516;2022-10-16T05:29:45;14.40;99.90
8338;DHT22;4206;48.634;9.516;2022-10-16T05:32:12;14.40;99.90
8338;DHT22;4206;48.634;9.516;2022-10-16T05:34:37;14.30;99.90
8338;DHT22;4206;48.634;9.516;2022-10-16T05:37:03;14.30;99.90
8338;DHT22;4206;48.634;9.516;2022-10-16T05:39:29;14.30;99.90
8338;DHT22;4206;48.634;9.516;2022-10-16T05:41:54;14.30;99.90
8338;DHT22;4206;48.634;9.516;2022-10-16T05:44:20;14.30;99.90
8338;DHT22;4206;48.634;9.516;2022-10-16T05:46:46;14.20;99.90
8338;DHT22;4206;48.634;9.516;2022-10-16T05:49:12;14.20;99.90
8338;DHT22;4206;48.634;9.516;2022-10-16T05:51:38;14.20;99.90
8338;DHT22;4206;48.634;9.516;2022-10-16T05:54:03;14.20;99.90
8338;DHT22;4206;48.634;9.516;2022-10-16T05:56:29;14.20;99.90
8338;DHT22;4206;48.634;9.516;2022-10-16T05:58:55;14.10;99.90
8338;DHT22;4206;48.634;9.516;2022-10-16T06:01:20;14.10;99.90
8338;DHT22;4206;48.634;9.516;2022-10-16T06:03:50;14.10;99.90
8338;DHT22;4206;48.634;9.516;2022-10-16T06:06:18;14.10;99.90
8338;DHT22;4206;48.634;9.516;2022-10-16T06:08:46;14.10;99.90
8338;DHT22;4206;48.634;9.516;2022-10-16T06:11:14;14.10;99.90
8338;DHT22;4206;48.634;9.516;2022-10-16T06:13:40;14.10;99.90
8338;DHT22;4206;48.634;9.516;2022-10-16T06:16:09;14.10;99.90
8338;DHT22;4206;48.634;9.516;2022-10-16T06:18:34;14.30;99.90
8338;DHT22;4206;48.634;9.516;2022-10-16T06:21:07;14.30;99.90
8338;DHT22;4206;48.634;9.516;2022-10-16T06:23:33;14.40;99.90
8338;DHT22;4206;48.634;9.516;2022-10-16T06:26:08;14.50;99.90
8338;DHT22;4206;48.634;9.516;2022-10-16T06:28:34;14.60;99.90
8338;DHT22;4206;48.634;9.516;2022-10-16T06:31:00;14.70;99.90
8338;DHT22;4206;48.634;9.516;2022-10-16T06:33:26;14.80;99.90
8338;DHT22;4206;48.634;9.516;2022-10-16T06:35:51;14.80;99.90
8338;DHT22;4206;48.634;9.516;2022-10-16T06:38:17;14.90;99.90
8338;DHT22;4206;48.634;9.516;2022-10-16T06:40:43;15.20;99.90
8338;DHT22;4206;48.634;9.516;2022-10-16T06:43:09;15.30;99.90
8338;DHT22;4206;48.634;9.516;2022-10-16T06:45:34;15.40;99.90
8338;DHT22;4206;48.634;9.516;2022-10-16T06:48:00;15.50;99.90
8338;DHT22;4206;48.634;9.516;2022-10-16T06:50:25;15.50;99.90
8338;DHT22;4206;48.634;9.516;2022-10-16T06:52:51;15.50;99.90
8338;DHT22;4206;48.634;9.516;2022-10-16T06:55:17;15.50;99.90
8338;DHT22;4206;48.634;9.516;2022-10-16T06:57:43;15.50;99.90
8338;DHT22;4206;48.634;9.516;2022-10-16T07:00:09;15.50;99.90
8338;DHT22;4206;48.634;9.516;2022-10-16T07:02:35;15.80;99.90
8338;DHT22;4206;48.634;9.516;2022-10-16T07:05:00;15.90;99.90
8338;DHT22;4206;48.634;9.516;2022-10-16T07:07:26;16.00;99.90
8338;DHT22;4206;48.634;9.516;2022-10-16T07:09:52;15.90;99.90
8338;DHT22;4206;48.634;9.516;2022-10-16T07:12:18;15.90;99.90
8338;DHT22;4206;48.634;9.516;2022-10-16T07:14:43;15.90;99.90
8338;DHT22;4206;48.634;9.516;2022-10-16T07:17:09;16.00;99.90
8338;DHT22;4206;48.634;9.516;2022-10-16T07:19:34;16.10;99.90
8338;DHT22;4206;48.634;9.516;2022-10-16T07:22:00;16.20;99.90
8338;DHT22;4206;48.634;9.516;2022-10-16T07:24:26;16.30;99.90
8338;DHT22;4206;48.634;9.516;2022-10-16T07:26:52;16.20;99.90
8338;DHT22;4206;48.634;9.516;2022-10-16T07:29:20;16.30;99.90
8338;DHT22;4206;48.634;9.516;2022-10-16T07:31:46;16.20;99.90
8338;DHT22;4206;48.634;9.516;2022-10-16T07:34:13;16.30;99.90
8338;DHT22;4206;48.634;9.516;2022-10-16T07:36:39;16.40;99.90
8338;DHT22;4206;48.634;9.516;2022-10-16T07:39:05;16.30;99.90
8338;DHT22;4206;48.634;9.516;2022-10-16T07:41:31;16.30;99.90
8338;DHT22;4206;48.634;9.516;2022-10-16T07:43:58;16.20;99.90
8338;DHT22;4206;48.634;9.516;2022-10-16T07:46:26;16.30;99.90
8338;DHT22;4206;48.634;9.516;2022-10-16T07:48:52;16.30;99.90
8338;DHT22;4206;48.634;9.516;2022-10-16T07:51:23;16.40;99.90
8338;DHT22;4206;48.634;9.516;2022-10-16T07:53:49;16.50;99.90
8338;DHT22;4206;48.634;9.516;2022-10-16T07:56:17;16.50;99.90
8338;DHT22;4206;48.634;9.516;2022-10-16T07:58:43;16.50;99.90
8338;DHT22;4206;48.634;9.516;2022-10-16T08:01:11;16.60;99.90
8338;DHT22;4206;48.634;9.516;2022-10-16T08:03:38;16.50;99.90
8338;DHT22;4206;48.634;9.516;2022-10-16T08:06:06;16.60;99.90
8338;DHT22;4206;48.634;9.516;2022-10-16T08:08:32;16.60;99.90
8338;DHT22;4206;48.634;9.516;2022-10-16T08:10:57;16.90;99.90
8338;DHT22;4206;48.634;9.516;2022-10-16T08:13:23;17.00;99.90
8338;DHT22;4206;48.634;9.516;2022-10-16T08:15:49;17.20;99.90
8338;DHT22;4206;48.634;9.516;2022-10-16T08:18:15;17.20;99.90
8338;DHT22;4206;48.634;9.516;2022-10-16T08:20:41;17.20;99.90
8338;DHT22;4206;48.634;9.516;2022-10-16T08:23:12;17.40;99.90
8338;DHT22;4206;48.634;9.516;2022-10-16T08:25:39;17.40;99.90
8338;DHT22;4206;48.634;9.516;2022-10-16T08:28:07;17.60;99.90
8338;DHT22;4206;48.634;9.516;2022-10-16T08:30:33;17.60;99.90
8338;DHT22;4206;48.634;9.516;2022-10-16T08:33:00;17.70;99.90
8338;DHT22;4206;48.634;9.516;2022-10-16T08:35:25;17.70;99.90
8338;DHT22;4206;48.634;9.516;2022-10-16T08:37:51;17.90;99.90
8338;DHT22;4206;48.634;9.516;2022-10-16T08:40:20;17.90;99.90
8338;DHT22;4206;48.634;9.516;2022-10-16T08:48:05;18.20;99.90
8338;DHT22;4206;48.634;9.516;2022-10-16T08:50:37;18.30;99.90
8338;DHT22;4206;48.634;9.516;2022-10-16T08:53:04;18.30;99.90
8338;DHT22;4206;48.634;9.516;2022-10-16T08:55:42;18.60;99.90
8338;DHT22;4206;48.634;9.516;2022-10-16T08:58:13;18.90;99.90
8338;DHT22;4206;48.634;9.516;2022-10-16T09:00:39;19.40;99.90
8338;DHT22;4206;48.634;9.516;2022-10-16T09:03:16;19.80;99.90
8338;DHT22;4206;48.634;9.516;2022-10-16T09:11:02;20.30;99.90
8338;DHT22;4206;48.634;9.516;2022-10-16T09:13:43;20.30;99.90
8338;DHT22;4206;48.634;9.516;2022-10-16T09:21:24;19.20;99.90
8338;DHT22;4206;48.634;9.516;2022-10-16T09:23:51;19.20;99.90
8338;DHT22;4206;48.634;9.516;2022-10-16T09:26:17;19.40;99.90
8338;DHT22;4206;48.634;9.516;2022-10-16T09:28:44;19.30;99.90
8338;DHT22;4206;48.634;9.516;2022-10-16T09:31:16;19.60;99.90
8338;DHT22;4206;48.634;9.516;2022-10-16T09:33:44;20.00;99.90
8338;DHT22;4206;48.634;9.516;2022-10-16T09:36:11;20.30;99.90
8338;DHT22;4206;48.634;9.516;2022-10-16T09:38:38;20.60;99.90
8338;DHT22;4206;48.634;9.516;2022-10-16T09:41:20;21.20;99.90
8338;DHT22;4206;48.634;9.516;2022-10-16T09:43:49;21.30;99.90
8338;DHT22;4206;48.634;9.516;2022-10-16T09:48:53;21.60;99.90
8338;DHT22;4206;48.634;9.516;2022-10-16T09:53:55;21.30;99.90
8338;DHT22;4206;48.634;9.516;2022-10-16T09:56:26;21.40;99.90
8338;DHT22;4206;48.634;9.516;2022-10-16T09:58:56;21.60;99.90
8338;DHT22;4206;48.634;9.516;2022-10-16T10:01:28;21.50;99.90
8338;DHT22;4206;48.634;9.516;2022-10-16T10:03:56;21.70;99.90
8338;DHT22;4206;48.634;9.516;2022-10-16T10:06:29;21.60;99.90
8338;DHT22;4206;48.634;9.516;2022-10-16T10:09:03;21.60;99.90
8338;DHT22;4206;48.634;9.516;2022-10-16T10:11:39;21.60;99.90
8338;DHT22;4206;48.634;9.516;2022-10-16T10:14:12;21.70;99.90
8338;DHT22;4206;48.634;9.516;2022-10-16T10:16:40;21.60;99.90
8338;DHT22;4206;48.634;9.516;2022-10-16T10:19:21;21.70;99.90
8338;DHT22;4206;48.634;9.516;2022-10-16T10:21:49;21.60;99.90
8338;DHT22;4206;48.634;9.516;2022-10-16T10:24:16;21.70;99.90
8338;DHT22;4206;48.634;9.516;2022-10-16T10:26:48;21.80;99.90
8338;DHT22;4206;48.634;9.516;2022-10-16T10:32:00;22.30;99.90
8338;DHT22;4206;48.634;9.516;2022-10-16T10:34:50;22.80;99.90
8338;DHT22;4206;48.634;9.516;2022-10-16T10:37:42;23.20;99.90
8338;DHT22;4206;48.634;9.516;2022-10-16T10:40:29;24.00;99.90
8338;DHT22;4206;48.634;9.516;2022-10-16T10:45:36;25.60;99.90
8338;DHT22;4206;48.634;9.516;2022-10-16T10:50:57;26.10;99.90
8338;DHT22;4206;48.634;9.516;2022-10-16T10:56:00;25.70;99.90
8338;DHT22;4206;48.634;9.516;2022-10-16T11:09:53;25.30;99.90
8338;DHT22;4206;48.634;9.516;2022-10-16T11:12:29;25.80;99.90
8338;DHT22;4206;48.634;9.516;2022-10-16T11:20:32;28.20;99.90
8338;DHT22;4206;48.634;9.516;2022-10-16T11:23:18;28.40;99.90
8338;DHT22;4206;48.634;9.516;2022-10-16T11:25:48;29.40;99.90
8338;DHT22;4206;48.634;9.516;2022-10-16T11:28:18;29.60;99.90
8338;DHT22;4206;48.634;9.516;2022-10-16T11:35:46;29.30;99.90
8338;DHT22;4206;48.634;9.516;2022-10-16T11:40:45;28.70;99.90
8338;DHT22;4206;48.634;9.516;2022-10-16T11:43:19;28.50;99.90
8338;DHT22;4206;48.634;9.516;2022-10-16T11:45:52;27.10;99.90
8338;DHT22;4206;48.634;9.516;2022-10-16T11:51:40;29.10;99.90
8338;DHT22;4206;48.634;9.516;2022-10-16T11:56:50;30.10;99.90
8338;DHT22;4206;48.634;9.516;2022-10-16T11:59:20;29.90;99.90
8338;DHT22;4206;48.634;9.516;2022-10-16T12:01:52;30.50;99.90
8338;DHT22;4206;48.634;9.516;2022-10-16T12:04:36;30.90;99.90
8338;DHT22;4206;48.634;9.516;2022-10-16T12:07:18;31.90;99.90
8338;DHT22;4206;48.634;9.516;2022-10-16T12:09:44;32.40;99.90
8338;DHT22;4206;48.634;9.516;2022-10-16T12:12:27;32.60;99.90
8338;DHT22;4206;48.634;9.516;2022-10-16T12:15:15;32.50;99.90
8338;DHT22;4206;48.634;9.516;2022-10-16T12:17:42;32.40;99.90
8338;DHT22;4206;48.634;9.516;2022-10-16T12:22:47;32.40;99.90
8338;DHT22;4206;48.634;9.516;2022-10-16T12:25:31;32.50;99.90
8338;DHT22;4206;48.634;9.516;2022-10-16T12:27:59;31.70;99.90
8338;DHT22;4206;48.634;9.516;2022-10-16T12:30:28;32.00;99.90
8338;DHT22;4206;48.634;9.516;2022-10-16T12:32:56;33.10;99.70
8338;DHT22;4206;48.634;9.516;2022-10-16T12:35:26;33.90;97.90
8338;DHT22;4206;48.634;9.516;2022-10-16T12:37:52;33.90;97.70
8338;DHT22;4206;48.634;9.516;2022-10-16T12:40:29;33.00;98.60
8338;DHT22;4206;48.634;9.516;2022-10-16T12:42:56;33.00;97.90
8338;DHT22;4206;48.634;9.516;2022-10-16T12:47:52;33.20;98.60
8338;DHT22;4206;48.634;9.516;2022-10-16T12:52:56;33.30;96.30
8338;DHT22;4206;48.634;9.516;2022-10-16T12:55:22;32.90;97.50
8338;DHT22;4206;48.634;9.516;2022-10-16T13:00:26;33.50;96.50
8338;DHT22;4206;48.634;9.516;2022-10-16T13:06:08;32.70;97.90
8338;DHT22;4206;48.634;9.516;2022-10-16T13:08:43;32.20;97.70
8338;DHT22;4206;48.634;9.516;2022-10-16T13:14:23;33.00;97.10
8338;DHT22;4206;48.634;9.516;2022-10-16T13:22:42;31.60;98.50
8338;DHT22;4206;48.634;9.516;2022-10-16T13:28:08;32.40;95.40
8338;DHT22;4206;48.634;9.516;2022-10-16T13:30:41;32.40;97.00
8338;DHT22;4206;48.634;9.516;2022-10-16T13:33:17;33.40;96.10
8338;DHT22;4206;48.634;9.516;2022-10-16T13:35:53;32.70;95.60
8338;DHT22;4206;48.634;9.516;2022-10-16T13:38:24;34.40;93.90
8338;DHT22;4206;48.634;9.516;2022-10-16T13:40:55;34.30;94.20
8338;DHT22;4206;48.634;9.516;2022-10-16T13:43:26;34.90;93.30
8338;DHT22;4206;48.634;9.516;2022-10-16T13:45:55;34.30;94.50
8338;DHT22;4206;48.634;9.516;2022-10-16T13:48:21;35.00;92.50
8338;DHT22;4206;48.634;9.516;2022-10-16T13:50:58;34.40;93.50
8338;DHT22;4206;48.634;9.516;2022-10-16T13:53:24;33.80;93.70
8338;DHT22;4206;48.634;9.516;2022-10-16T13:55:49;33.80;93.10
8338;DHT22;4206;48.634;9.516;2022-10-16T13:58:15;33.10;93.80
8338;DHT22;4206;48.634;9.516;2022-10-16T14:00:54;32.00;94.00
8338;DHT22;4206;48.634;9.516;2022-10-16T14:03:20;31.80;94.50
8338;DHT22;4206;48.634;9.516;2022-10-16T14:05:49;31.20;94.50
8338;DHT22;4206;48.634;9.516;2022-10-16T14:08:16;31.40;95.00
8338;DHT22;4206;48.634;9.516;2022-10-16T14:10:41;31.00;96.10
8338;DHT22;4206;48.634;9.516;2022-10-16T14:13:12;30.20;95.80
8338;DHT22;4206;48.634;9.516;2022-10-16T14:15:38;30.60;96.00
8338;DHT22;4206;48.634;9.516;2022-10-16T14:18:04;30.80;95.60
8338;DHT22;4206;48.634;9.516;2022-10-16T14:20:33;30.80;95.70
8338;DHT22;4206;48.634;9.516;2022-10-16T14:23:03;30.60;97.00
8338;DHT22;4206;48.634;9.516;2022-10-16T14:25:31;31.10;96.80
8338;DHT22;4206;48.634;9.516;2022-10-16T14:28:18;31.30;96.80
8338;DHT22;4206;48.634;9.516;2022-10-16T14:31:00;31.80;96.30
8338;DHT22;4206;48.634;9.516;2022-10-16T14:36:05;32.00;95.90
8338;DHT22;4206;48.634;9.516;2022-10-16T14:38:32;31.30;96.00
8338;DHT22;4206;48.634;9.516;2022-10-16T14:40:59;30.40;96.70
8338;DHT22;4206;48.634;9.516;2022-10-16T14:43:41;29.30;97.50
8338;DHT22;4206;48.634;9.516;2022-10-16T14:46:12;28.10;99.40
8338;DHT22;4206;48.634;9.516;2022-10-16T14:48:49;27.30;99.90
8338;DHT22;4206;48.634;9.516;2022-10-16T14:51:17;26.60;99.90
8338;DHT22;4206;48.634;9.516;2022-10-16T14:53:44;26.10;99.90
8338;DHT22;4206;48.634;9.516;2022-10-16T14:56:18;25.70;99.90
8338;DHT22;4206;48.634;9.516;2022-10-16T14:58:44;25.40;99.90
8338;DHT22;4206;48.634;9.516;2022-10-16T15:01:10;25.10;99.90
8338;DHT22;4206;48.634;9.516;2022-10-16T15:03:37;24.80;99.90
8338;DHT22;4206;48.634;9.516;2022-10-16T15:06:03;24.60;99.90
8338;DHT22;4206;48.634;9.516;2022-10-16T15:08:29;24.30;99.90
8338;DHT22;4206;48.634;9.516;2022-10-16T15:10:54;24.10;99.90
8338;DHT22;4206;48.634;9.516;2022-10-16T15:13:20;24.00;99.90
8338;DHT22;4206;48.634;9.516;2022-10-16T15:15:47;23.90;99.90
8338;DHT22;4206;48.634;9.516;2022-10-16T15:18:14;23.80;99.90
8338;DHT22;4206;48.634;9.516;2022-10-16T15:20:45;23.60;99.90
8338;DHT22;4206;48.634;9.516;2022-10-16T15:23:15;23.30;99.90
8338;DHT22;4206;48.634;9.516;2022-10-16T15:28:09;23.10;99.90
8338;DHT22;4206;48.634;9.516;2022-10-16T15:30:36;23.10;99.90
8338;DHT22;4206;48.634;9.516;2022-10-16T15:33:03;23.10;99.90
8338;DHT22;4206;48.634;9.516;2022-10-16T15:35:29;23.00;99.90
8338;DHT22;4206;48.634;9.516;2022-10-16T15:37:55;23.10;99.90
8338;DHT22;4206;48.634;9.516;2022-10-16T15:40:21;23.00;99.90
8338;DHT22;4206;48.634;9.516;2022-10-16T15:42:47;23.00;99.90
8338;DHT22;4206;48.634;9.516;2022-10-16T15:45:15;22.90;99.90
8338;DHT22;4206;48.634;9.516;2022-10-16T15:47:41;22.90;99.90
8338;DHT22;4206;48.634;9.516;2022-10-16T15:50:10;22.80;99.90
8338;DHT22;4206;48.634;9.516;2022-10-16T15:52:36;22.80;99.90
8338;DHT22;4206;48.634;9.516;2022-10-16T15:55:02;22.70;99.90
8338;DHT22;4206;48.634;9.516;2022-10-16T15:57:28;22.60;99.90
8338;DHT22;4206;48.634;9.516;2022-10-16T15:59:54;22.50;99.90
8338;DHT22;4206;48.634;9.516;2022-10-16T16:02:20;22.50;99.90
8338;DHT22;4206;48.634;9.516;2022-10-16T16:04:46;22.30;99.90
8338;DHT22;4206;48.634;9.516;2022-10-16T16:07:11;22.20;99.90
8338;DHT22;4206;48.634;9.516;2022-10-16T16:09:37;22.00;99.90
8338;DHT22;4206;48.634;9.516;2022-10-16T16:12:03;21.90;99.90
8338;DHT22;4206;48.634;9.516;2022-10-16T16:14:29;21.80;99.90
8338;DHT22;4206;48.634;9.516;2022-10-16T16:16:55;21.70;99.90
8338;DHT22;4206;48.634;9.516;2022-10-16T16:19:21;21.70;99.90
8338;DHT22;4206;48.634;9.516;2022-10-16T16:21:47;21.50;99.90
8338;DHT22;4206;48.634;9.516;2022-10-16T16:24:13;21.40;99.90
8338;DHT22;4206;48.634;9.516;2022-10-16T16:26:38;21.30;99.90
8338;DHT22;4206;48.634;9.516;2022-10-16T16:29:05;21.20;99.90
8338;DHT22;4206;48.634;9.516;2022-10-16T16:31:31;21.00;99.90
8338;DHT22;4206;48.634;9.516;2022-10-16T16:33:58;20.90;99.90
8338;DHT22;4206;48.634;9.516;2022-10-16T16:36:24;20.90;99.90
8338;DHT22;4206;48.634;9.516;2022-10-16T16:38:51;20.90;99.90
8338;DHT22;4206;48.634;9.516;2022-10-16T16:41:19;20.80;99.90
8338;DHT22;4206;48.634;9.516;2022-10-16T16:43:46;20.60;99.90
8338;DHT22;4206;48.634;9.516;2022-10-16T16:46:13;20.50;99.90
8338;DHT22;4206;48.634;9.516;2022-10-16T16:48:39;20.40;99.90
8338;DHT22;4206;48.634;9.516;2022-10-16T16:51:06;20.30;99.90
8338;DHT22;4206;48.634;9.516;2022-10-16T16:53:34;20.20;99.90
8338;DHT22;4206;48.634;9.516;2022-10-16T16:56:04;20.20;99.90
8338;DHT22;4206;48.634;9.516;2022-10-16T16:58:31;20.10;99.90
8338;DHT22;4206;48.634;9.516;2022-10-16T17:00:58;20.10;99.90
8338;DHT22;4206;48.634;9.516;2022-10-16T17:03:27;20.00;99.90
8338;DHT22;4206;48.634;9.516;2022-10-16T17:06:03;19.90;99.90
8338;DHT22;4206;48.634;9.516;2022-10-16T17:08:30;19.90;99.90
8338;DHT22;4206;48.634;9.516;2022-10-16T17:10:56;19.80;99.90
8338;DHT22;4206;48.634;9.516;2022-10-16T17:13:27;19.70;99.90
8338;DHT22;4206;48.634;9.516;2022-10-16T17:15:53;19.70;99.90
8338;DHT22;4206;48.634;9.516;2022-10-16T17:18:21;19.60;99.90
8338;DHT22;4206;48.634;9.516;2022-10-16T17:20:47;19.50;99.90
8338;DHT22;4206;48.634;9.516;2022-10-16T17:23:14;19.30;99.90
8338;DHT22;4206;48.634;9.516;2022-10-16T17:25:40;19.20;99.90
8338;DHT22;4206;48.634;9.516;2022-10-16T17:28:07;19.10;99.90
8338;DHT22;4206;48.634;9.516;2022-10-16T17:30:34;19.00;99.90
8338;DHT22;4206;48.634;9.516;2022-10-16T17:33:01;18.90;99.90
8338;DHT22;4206;48.634;9.516;2022-10-16T17:35:27;18.80;99.90
8338;DHT22;4206;48.634;9.516;2022-10-16T17:37:53;18.70;99.90
8338;DHT22;4206;48.634;9.516;2022-10-16T17:40:19;18.60;99.90
8338;DHT22;4206;48.634;9.516;2022-10-16T17:42:45;18.40;99.90
8338;DHT22;4206;48.634;9.516;2022-10-16T17:45:13;18.40;99.90
8338;DHT22;4206;48.634;9.516;2022-10-16T17:47:39;18.30;99.90
8338;DHT22;4206;48.634;9.516;2022-10-16T17:50:07;18.30;99.90
8338;DHT22;4206;48.634;9.516;2022-10-16T17:52:33;18.20;99.90
8338;DHT22;4206;48.634;9.516;2022-10-16T17:54:58;18.20;99.90
8338;DHT22;4206;48.634;9.516;2022-10-16T17:57:24;18.10;99.90
8338;DHT22;4206;48.634;9.516;2022-10-16T17:59:50;18.20;99.90